PAMR/MRI METAR and TAF weather

Enter ICAO airport designator
Station Type Date Time Source
PAMR METAR 2021/07/24 14:53 UTC NOAA

PAMR 241453Z 00000KT 10SM FEW014 SCT055 OVC080 13/10 A3002 RMK SLP167 T01330100 51005


Station Type Date Time Source
PAMR Decoded METAR 2021/07/24 14:53 UTC NOAA

ANCHORAGE MERRILL FIELD, AK, United States (PAMR) 61-13N 149-51W
Jul 24, 2021 - 10:53 AM EDT / 2021.07.24 1453 UTC
Wind: Calm:0
Visibility: 10 mile(s):0
Sky conditions: overcast
Temperature: 55.9 F (13.3 C)
Dew Point: 50.0 F (10.0 C)
Relative Humidity: 80%
Pressure (altimeter): 30.02 in. Hg (1016 hPa)
Pressure tendency: 0.01 inches (0.5 hPa) higher than three hours ago
ob: PAMR 241453Z 00000KT 10SM FEW014 SCT055 OVC080 13/10 A3002 RMK SLP167 T01330100 51005
cycle: 15

Station Type Date Time Source
PAMR TAF UTC NOAA

Error!

Example: see airport list